West City, Illinois
Current Conditions -  °F | °C
As of 11:48 AM on Saturday 25 Oct 2014 (Local Time) from KMWA Reporting Station
Clear Clear  
Wind Chill: 73°   Ceiling: Unl
Heat Index: 73°   Visibility: 20mi
Dew Point: 63°   Wind: 3mph
Humidity: 69%   Direction: 290°WNW
Pressure: 30.04"   Gusts: NA
Location:  38.0175°N, 88.9351°W
Report Text: KMWA 251648Z 29003KT 20SM SKC 23/17 A3004
Loading
Personal Weather Stations






























Interactive Weather Map
Tropical Storm Tracking
New forecast layout! Learn more

10-Day Weather Forecast

Advertisements
Track Severe Weather on mobile